Time;durP1;ratioP1;P1;durP2;ratioP2;P2;SDS_P1;SDS_P2;PMS_P1;PMS_P2;Temp;Humidity;BMP_temperature;BMP_pressure;BME280_temperature;BME280_humidity;BME280_pressure;Samples;Min_cycle;Max_cycle;Signal;HPM_P1;HPM_P2
2022/06/22 00:03:23;;;;;;;4.37;2.27;;;;;;;21.91;40.40;97444.28;8412833;28;20290;-76
2022/06/22 00:07:29;;;;;;;3.87;2.57;;;;;;;21.97;39.37;97456.03;8412879;28;20517;-76
2022/06/22 00:11:33;;;;;;;2.63;2.00;;;;;;;21.96;38.58;97454.38;8413762;28;20234;-76
2022/06/22 00:15:38;;;;;;;4.17;2.03;;;;;;;21.91;38.72;97457.47;8412818;28;20250;-77
2022/06/22 00:19:43;;;;;;;8.10;2.70;;;;;;;21.79;38.50;97454.22;8413042;28;20230;-77
2022/06/22 00:23:48;;;;;;;5.30;2.60;;;;;;;21.67;38.22;97442.28;8412500;28;20485;-77
2022/06/22 00:27:52;;;;;;;5.67;2.93;;;;;;;21.29;38.84;97431.00;8412969;28;20225;-77
2022/06/22 00:32:04;;;;;;;4.80;2.30;;;;;;;21.57;38.57;97433.59;8412752;28;20230;-76
2022/06/22 00:36:18;;;;;;;4.60;2.67;;;;;;;21.64;39.54;97429.38;8412428;28;20528;-77
2022/06/22 00:40:21;;;;;;;5.47;2.70;;;;;;;21.61;39.38;97435.81;8413003;28;20237;-75
2022/06/22 00:44:28;;;;;;;5.10;2.50;;;;;;;21.58;39.36;97430.00;8412733;28;20234;-76
2022/06/22 00:48:33;;;;;;;3.33;2.37;;;;;;;21.51;39.57;97427.13;8413254;28;20237;-75
2022/06/22 00:52:40;;;;;;;3.93;2.30;;;;;;;21.50;39.10;97422.84;8414731;28;20234;-76
2022/06/22 00:56:49;;;;;;;3.83;2.40;;;;;;;21.54;39.17;97426.84;8419341;28;20231;-77
2022/06/22 01:00:57;;;;;;;3.83;2.47;;;;;;;21.54;38.74;97423.38;8419303;28;20433;-77
2022/06/22 01:05:08;;;;;;;5.07;2.73;;;;;;;21.55;38.69;97403.94;8419208;28;20539;-77
2022/06/22 01:09:16;;;;;;;7.50;2.83;;;;;;;21.31;39.38;97396.63;8418815;28;20253;-77
2022/06/22 01:13:24;;;;;;;3.80;2.30;;;;;;;21.43;39.83;97400.69;8418987;28;20230;-77
2022/06/22 01:17:29;;;;;;;7.30;2.47;;;;;;;21.32;39.70;97403.53;8418334;28;20227;-77
2022/06/22 01:21:37;;;;;;;7.73;2.30;;;;;;;21.37;39.40;97402.09;8418991;28;20238;-77
2022/06/22 01:25:51;;;;;;;3.97;2.10;;;;;;;21.36;39.86;97397.84;8418928;28;20238;-77
2022/06/22 01:29:57;;;;;;;3.67;2.60;;;;;;;21.32;39.83;97400.91;8418566;28;20540;-77
2022/06/22 01:33:59;;;;;;;4.93;2.50;;;;;;;21.24;39.72;97396.38;8418455;28;20531;-77
2022/06/22 01:38:12;;;;;;;5.23;2.53;;;;;;;21.38;40.05;97395.88;8418315;28;20231;-77
2022/06/22 01:42:20;;;;;;;3.67;2.40;;;;;;;21.31;40.46;97394.81;8418203;28;20429;-77
2022/06/22 01:46:35;;;;;;;6.80;2.60;;;;;;;21.24;40.04;97399.00;8417707;28;20234;-76
2022/06/22 01:50:44;;;;;;;6.50;2.27;;;;;;;21.20;40.61;97402.94;8417885;28;20534;-77
2022/06/22 01:54:55;;;;;;;8.47;2.57;;;;;;;21.12;41.85;97405.47;8417671;28;20230;-77
2022/06/22 01:59:05;;;;;;;6.63;2.50;;;;;;;21.00;42.46;97413.59;8417453;28;20227;-77
2022/06/22 02:03:14;;;;;;;5.00;2.50;;;;;;;21.00;41.62;97412.72;8417460;28;20241;-78
2022/06/22 02:12:18;;;;;;;3.30;2.40;;;;;;;20.88;41.89;97414.72;8417115;28;20240;-77
2022/06/22 02:16:21;;;;;;;6.07;2.80;;;;;;;20.98;41.68;97414.69;8416816;28;20430;-77
2022/06/22 02:20:33;;;;;;;7.17;2.70;;;;;;;20.88;41.66;97407.66;8416614;28;20454;-77
2022/06/22 02:24:40;;;;;;;7.47;2.60;;;;;;;20.85;41.81;97407.97;8416783;28;20231;-77
2022/06/22 02:28:44;;;;;;;4.23;2.60;;;;;;;20.80;42.20;97410.19;8416604;28;20227;-77
2022/06/22 02:32:47;;;;;;;7.37;2.97;;;;;;;20.82;42.29;97403.00;8416588;28;20423;-77
2022/06/22 02:36:53;;;;;;;5.30;3.20;;;;;;;20.77;42.34;97405.25;8416345;28;20228;-77
2022/06/22 02:45:18;;;;;;;3.37;2.57;;;;;;;20.72;42.37;97401.41;8416206;28;20240;-77
2022/06/22 02:49:24;;;;;;;3.50;2.37;;;;;;;20.70;42.22;97402.34;8416193;28;20237;-78
2022/06/22 02:53:33;;;;;;;4.10;2.60;;;;;;;20.73;41.46;97397.78;8415546;28;20545;-77
2022/06/22 02:57:43;;;;;;;5.20;2.13;;;;;;;20.76;41.20;97400.94;8415781;28;20238;-77
2022/06/22 03:01:46;;;;;;;4.20;2.30;;;;;;;20.73;41.04;97398.59;8415668;28;20228;-77
2022/06/22 03:05:50;;;;;;;7.27;2.30;;;;;;;20.66;41.24;97393.09;8415569;28;20233;-77
2022/06/22 03:09:55;;;;;;;5.43;2.33;;;;;;;20.67;41.35;97388.66;8415246;28;20229;-77
2022/06/22 03:14:07;;;;;;;6.60;2.47;;;;;;;20.68;41.73;97392.97;8415295;28;20239;-77
2022/06/22 03:18:14;;;;;;;5.70;2.63;;;;;;;20.70;41.97;97393.66;8414154;28;20250;-78
2022/06/22 03:22:21;;;;;;;4.83;2.30;;;;;;;20.75;42.01;97393.19;8415037;28;20425;-78
2022/06/22 03:26:27;;;;;;;6.10;2.60;;;;;;;20.75;42.54;97391.38;8414470;28;20330;-76
2022/06/22 03:30:47;;;;;;;6.73;2.70;;;;;;;20.75;42.48;97393.19;8414885;28;20508;-77
2022/06/22 03:34:55;;;;;;;8.37;2.67;;;;;;;20.86;41.83;97382.47;8414533;28;20415;-77
2022/06/22 03:39:02;;;;;;;4.40;2.40;;;;;;;20.83;42.34;97382.78;8414539;28;20226;-78
2022/06/22 03:43:11;;;;;;;5.50;2.90;;;;;;;20.80;41.93;97386.53;8414367;28;20230;-77
2022/06/22 03:47:15;;;;;;;6.07;2.80;;;;;;;20.87;41.85;97384.97;8414380;28;20245;-78
2022/06/22 03:51:20;;;;;;;7.43;2.80;;;;;;;20.89;41.93;97385.66;8414191;28;20228;-78
2022/06/22 03:55:27;;;;;;;5.07;3.07;;;;;;;20.93;41.78;97378.28;8413682;28;20238;-77
2022/06/22 03:59:32;;;;;;;5.97;2.97;;;;;;;21.05;41.26;97378.91;8414034;28;20424;-77
2022/06/22 04:03:35;;;;;;;10.00;2.80;;;;;;;21.14;40.95;97388.56;8414001;28;20244;-77
2022/06/22 04:07:40;;;;;;;3.50;2.13;;;;;;;21.08;40.93;97394.41;8413556;28;20428;-77
2022/06/22 04:11:46;;;;;;;3.30;2.00;;;;;;;21.13;39.92;97394.78;8414282;28;20422;-78
2022/06/22 04:15:55;;;;;;;4.70;2.67;;;;;;;20.64;41.03;97399.50;8413743;28;20235;-77
2022/06/22 04:20:02;;;;;;;4.70;2.60;;;;;;;20.91;40.92;97395.22;8413658;28;20509;-77
2022/06/22 04:24:11;;;;;;;4.80;2.67;;;;;;;21.05;40.71;97394.69;8413676;28;20234;-77
2022/06/22 04:28:15;;;;;;;6.07;2.53;;;;;;;21.15;41.53;97402.53;8415943;28;20242;-77
2022/06/22 04:32:22;;;;;;;2.43;2.20;;;;;;;21.25;40.84;97414.66;8420454;28;20234;-76
2022/06/22 04:36:28;;;;;;;6.20;2.77;;;;;;;20.80;41.28;97407.56;8419731;28;20245;-76
2022/06/22 04:40:35;;;;;;;5.23;2.77;;;;;;;21.09;41.25;97398.69;8420058;28;20545;-76
2022/06/22 04:44:44;;;;;;;5.17;3.10;;;;;;;20.89;41.19;97396.19;8420011;28;20234;-77
2022/06/22 04:48:49;;;;;;;5.73;2.37;;;;;;;20.74;41.44;97396.81;8419957;28;20410;-76
2022/06/22 04:52:54;;;;;;;4.47;2.47;;;;;;;20.43;42.34;97395.25;8419816;28;20413;-77
2022/06/22 04:56:59;;;;;;;5.00;2.40;;;;;;;20.97;41.56;97418.31;8419548;28;20527;-76
2022/06/22 05:01:02;;;;;;;5.77;2.50;;;;;;;21.14;40.90;97425.41;8416408;28;20222;-77
2022/06/22 05:05:11;;;;;;;6.87;2.77;;;;;;;20.84;41.37;97426.53;8419320;28;20422;-77
2022/06/22 05:09:21;;;;;;;6.37;2.37;;;;;;;21.02;41.47;97413.44;8418838;28;20240;-76
2022/06/22 05:13:26;;;;;;;4.57;2.50;;;;;;;20.94;41.65;97422.03;8418786;28;20420;-77
2022/06/22 05:17:32;;;;;;;7.37;2.30;;;;;;;21.18;40.90;97405.69;8418699;28;20514;-77
2022/06/22 05:21:39;;;;;;;4.20;2.53;;;;;;;21.11;40.94;97423.06;8418682;28;20229;-77
2022/06/22 05:25:43;;;;;;;7.07;2.60;;;;;;;21.01;40.87;97428.38;8418686;28;20567;-78
2022/06/22 05:29:48;;;;;;;7.00;2.30;;;;;;;21.14;40.86;97416.69;8418677;28;20255;-76
2022/06/22 05:33:53;;;;;;;5.10;2.40;;;;;;;21.10;41.43;97426.69;8418645;28;20231;-76
2022/06/22 05:38:02;;;;;;;9.17;2.27;;;;;;;21.08;41.03;97423.38;8418155;28;20244;-78
2022/06/22 05:42:05;;;;;;;4.60;2.57;;;;;;;21.43;40.35;97427.03;8417217;28;20229;-77
2022/06/22 05:46:10;;;;;;;4.77;2.73;;;;;;;21.65;40.18;97428.44;8417990;28;20243;-78
2022/06/22 05:50:16;;;;;;;4.47;2.43;;;;;;;22.03;39.73;97421.16;8417938;28;20528;-77
2022/06/22 05:54:24;;;;;;;6.67;2.57;;;;;;;21.99;39.17;97431.19;8417903;28;20555;-77
2022/06/22 05:58:30;;;;;;;6.03;2.60;;;;;;;22.15;39.37;97425.19;8417083;28;20226;-76
2022/06/22 06:02:38;;;;;;;9.00;3.00;;;;;;;21.97;39.92;97422.59;8417574;28;20234;-77
2022/06/22 06:06:42;;;;;;;10.20;3.10;;;;;;;22.37;39.49;97417.78;8417237;28;20241;-77
2022/06/22 06:10:47;;;;;;;4.03;2.50;;;;;;;22.44;39.38;97424.91;8417392;28;20391;-77
2022/06/22 06:14:53;;;;;;;5.00;2.10;;;;;;;22.83;39.41;97421.81;8417020;28;20230;-77
2022/06/22 06:18:58;;;;;;;5.97;2.70;;;;;;;22.52;40.00;97415.38;8417053;28;20231;-77
2022/06/22 06:23:05;;;;;;;5.00;2.33;;;;;;;23.02;38.65;97427.84;8416763;28;20533;-77
2022/06/22 06:31:53;;;;;;;11.07;2.60;;;;;;;22.42;40.80;97426.88;8416500;28;20320;-77
2022/06/22 06:36:01;;;;;;;12.27;2.77;;;;;;;22.88;39.61;97421.31;8416657;28;20231;-76
2022/06/22 06:40:05;;;;;;;10.93;2.73;;;;;;;23.33;38.24;97427.28;8416285;28;20237;-76
2022/06/22 06:44:12;;;;;;;7.27;2.53;;;;;;;23.74;38.11;97425.53;8415681;28;20226;-76
2022/06/22 06:48:18;;;;;;;15.70;3.00;;;;;;;23.59;38.82;97425.34;8415616;28;20242;-76
2022/06/22 06:52:26;;;;;;;42.63;5.07;;;;;;;23.90;38.44;97424.75;8415194;28;20238;-76
2022/06/22 06:56:32;;;;;;;8.67;2.67;;;;;;;23.68;40.53;97420.88;8385821;28;20257;-76
2022/06/22 07:00:36;;;;;;;9.03;2.50;;;;;;;23.88;38.21;97420.63;8381942;28;20231;-77
2022/06/22 07:04:39;;;;;;;7.83;2.80;;;;;;;24.14;37.42;97428.34;8415193;28;20562;-76
2022/06/22 07:08:45;;;;;;;6.53;2.70;;;;;;;24.50;37.01;97425.31;8415027;28;20266;-77
2022/06/22 07:12:53;;;;;;;5.47;2.20;;;;;;;24.51;37.92;97419.88;8415166;28;20246;-77
2022/06/22 07:16:59;;;;;;;6.37;2.50;;;;;;;24.80;37.08;97410.53;8414558;28;20231;-75
2022/06/22 07:21:13;;;;;;;7.67;2.33;;;;;;;25.06;37.04;97433.28;8414580;28;20230;-77
2022/06/22 07:25:21;;;;;;;7.47;2.80;;;;;;;25.25;36.35;97432.88;8414629;28;20482;-78
2022/06/22 07:29:28;;;;;;;9.93;2.93;;;;;;;25.47;35.90;97425.94;8413877;28;20230;-78
2022/06/22 07:33:37;;;;;;;7.70;2.70;;;;;;;25.59;36.08;97414.94;8414270;28;20226;-77
2022/06/22 07:37:42;;;;;;;11.40;2.87;;;;;;;25.85;35.93;97423.34;8414037;28;20245;-79
2022/06/22 07:41:44;;;;;;;6.60;2.23;;;;;;;26.11;35.10;97425.66;8413991;28;20409;-77
2022/06/22 07:45:47;;;;;;;6.43;2.70;;;;;;;26.24;34.70;97429.53;8413806;28;20227;-76
2022/06/22 07:49:56;;;;;;;4.53;2.20;;;;;;;26.58;34.37;97429.03;8414071;28;20223;-77
2022/06/22 07:54:03;;;;;;;5.33;2.30;;;;;;;26.62;34.03;97417.06;8413439;28;20235;-77
2022/06/22 07:58:19;;;;;;;6.57;2.27;;;;;;;26.87;34.34;97414.09;8413631;28;20224;-76
2022/06/22 08:02:25;;;;;;;4.67;2.50;;;;;;;27.20;33.61;97408.38;8412505;28;20227;-77
2022/06/22 08:06:33;;;;;;;3.83;2.40;;;;;;;27.34;32.51;97410.19;8413012;28;20240;-76
2022/06/22 08:10:41;;;;;;;3.33;2.13;;;;;;;27.51;32.73;97421.41;8413218;28;20237;-80
2022/06/22 08:14:46;;;;;;;5.97;2.23;;;;;;;27.67;33.84;97415.84;8413264;28;20403;-83
2022/06/22 08:18:49;;;;;;;5.43;2.60;;;;;;;27.76;33.28;97413.03;8412840;28;20229;-79
2022/06/22 08:23:01;;;;;;;7.37;2.63;;;;;;;27.86;33.32;97417.03;8413003;28;20331;-80
2022/06/22 08:27:25;;;;;;;7.17;2.70;;;;;;;28.22;32.18;97415.31;8412474;28;20237;-79
2022/06/22 08:31:31;;;;;;;7.73;2.77;;;;;;;28.19;32.95;97421.81;8412806;28;20544;-80
2022/06/22 08:35:38;;;;;;;6.13;2.50;;;;;;;28.54;31.40;97435.22;8413093;28;20246;-79
2022/06/22 08:39:47;;;;;;;8.10;3.03;;;;;;;28.69;31.72;97428.94;8413150;28;20238;-79
2022/06/22 08:43:58;;;;;;;7.77;2.53;;;;;;;29.04;31.11;97429.75;8413698;28;20543;-78
2022/06/22 08:48:38;;;;;;;5.50;2.53;;;;;;;29.21;31.47;97431.06;8413323;28;20547;-78
2022/06/22 08:52:48;;;;;;;6.10;2.37;;;;;;;29.48;30.64;97423.16;8403776;28;20230;-78
2022/06/22 08:57:20;;;;;;;5.27;2.70;;;;;;;29.46;30.52;97427.03;8413248;28;20232;-79
2022/06/22 09:01:29;;;;;;;9.23;2.30;;;;;;;29.52;29.81;97423.56;8412094;28;20219;-80
2022/06/22 09:05:58;;;;;;;6.90;2.43;;;;;;;29.57;29.61;97426.47;8410993;28;20229;-79
2022/06/22 09:10:12;;;;;;;6.23;2.63;;;;;;;30.17;29.47;97422.00;8398629;28;20598;-80
2022/06/22 09:14:33;;;;;;;5.47;2.40;;;;;;;29.99;29.23;97424.47;8415078;28;20240;-80
2022/06/22 09:19:17;;;;;;;5.20;2.40;;;;;;;29.94;29.04;97417.06;8418449;28;20436;-79
2022/06/22 09:23:29;;;;;;;5.63;2.47;;;;;;;30.35;28.57;97420.59;8409264;28;20556;-83
2022/06/22 09:27:38;;;;;;;11.37;2.90;;;;;;;29.84;28.83;97422.00;8418403;28;20248;-79
2022/06/22 09:32:15;;;;;;;5.13;2.70;;;;;;;30.24;28.51;97423.84;8418591;28;20418;-79
2022/06/22 09:36:35;;;;;;;8.13;2.60;;;;;;;29.52;29.11;97420.91;8418236;28;20335;-79
2022/06/22 09:40:46;;;;;;;7.30;2.60;;;;;;;29.38;30.45;97439.53;8417798;28;20239;-79
2022/06/22 09:45:08;;;;;;;5.73;2.53;;;;;;;29.64;30.46;97432.59;8418262;28;20227;-80
2022/06/22 09:49:27;;;;;;;4.80;2.47;;;;;;;29.20;30.39;97432.06;8418148;28;20234;-79
2022/06/22 09:59:25;;;;;;;6.80;2.70;;;;;;;28.77;30.53;97442.09;8281851;28;20441;-79
2022/06/22 10:03:52;;;;;;;12.70;3.00;;;;;;;28.70;31.41;97441.25;8354319;28;20233;-80
2022/06/22 10:08:10;;;;;;;6.50;2.60;;;;;;;28.69;31.27;97436.94;8384248;28;20242;-79
2022/06/22 10:12:25;;;;;;;4.10;2.60;;;;;;;28.60;30.63;97433.63;8384367;28;20310;-81
2022/06/22 10:17:01;;;;;;;11.00;2.97;;;;;;;28.49;32.08;97437.63;8383518;28;20241;-82
2022/06/22 10:21:08;;;;;;;5.50;2.60;;;;;;;28.66;32.39;97438.16;8383962;28;20249;-82
2022/06/22 10:25:36;;;;;;;4.00;2.33;;;;;;;28.94;31.60;97435.44;8382820;28;20242;-81
2022/06/22 10:29:51;;;;;;;6.00;2.60;;;;;;;28.57;31.78;97442.81;8383405;28;20241;-81
2022/06/22 10:34:25;;;;;;;4.30;2.50;;;;;;;28.88;31.62;97443.38;8383585;28;20242;-81
2022/06/22 10:38:43;;;;;;;8.03;2.90;;;;;;;29.70;30.87;97436.31;8416311;28;20512;-81
2022/06/22 10:47:24;;;;;;;4.63;2.30;;;;;;;29.79;29.86;97429.78;8416492;28;20231;-82
2022/06/22 10:51:40;;;;;;;7.33;2.40;;;;;;;29.46;30.32;97433.19;8415973;28;20231;-82
2022/06/22 10:55:55;;;;;;;5.20;2.43;;;;;;;29.52;30.32;97427.03;8416161;28;20229;-86
2022/06/22 11:00:14;;;;;;;5.50;2.63;;;;;;;29.24;29.45;97428.00;8415789;28;20229;-79
2022/06/22 11:04:44;;;;;;;4.70;2.50;;;;;;;29.32;29.36;97427.00;8395342;28;20234;-80
2022/06/22 11:09:07;;;;;;;6.10;2.53;;;;;;;29.40;30.01;97426.81;8381976;28;20246;-75
2022/06/22 11:13:26;;;;;;;5.50;2.50;;;;;;;29.91;29.17;97417.50;8381893;28;20245;-79
2022/06/22 11:17:50;;;;;;;4.23;2.40;;;;;;;29.97;29.65;97415.84;8381637;28;20403;-80
2022/06/22 11:22:07;;;;;;;4.73;2.43;;;;;;;30.03;29.62;97417.69;8381947;28;20253;-82
2022/06/22 11:30:55;;;;;;;4.80;2.60;;;;;;;29.55;30.73;97410.66;8381711;28;20232;-79
2022/06/22 11:35:28;;;;;;;4.43;2.40;;;;;;;29.54;30.48;97416.19;8380732;28;20227;-79
2022/06/22 11:39:46;;;;;;;6.37;2.40;;;;;;;29.50;30.38;97417.63;8379944;28;20235;-79
2022/06/22 11:44:03;;;;;;;4.13;2.30;;;;;;;29.67;29.67;97418.88;8381510;28;20521;-79
2022/06/22 11:48:30;;;;;;;7.53;2.57;;;;;;;29.69;29.53;97422.16;8381156;28;20227;-79
2022/06/22 11:52:46;;;;;;;4.80;2.27;;;;;;;29.82;29.23;97418.72;8344936;28;20227;-78
2022/06/22 11:57:01;;;;;;;7.40;2.60;;;;;;;29.70;30.01;97420.31;8381256;28;20233;-78
2022/06/22 12:01:24;;;;;;;4.63;2.27;;;;;;;29.62;30.10;97413.31;8384856;28;20551;-79
2022/06/22 12:05:56;;;;;;;5.63;2.20;;;;;;;29.39;29.21;97421.69;8413714;28;20510;-80
2022/06/22 12:10:18;;;;;;;4.47;2.00;;;;;;;29.33;29.08;97409.16;8396949;28;20403;-80
2022/06/22 12:19:03;;;;;;;6.00;2.30;;;;;;;29.43;28.88;97409.59;8413516;28;20226;-79
2022/06/22 12:23:12;;;;;;;5.70;2.33;;;;;;;29.16;29.20;97414.84;8413615;28;20234;-80
2022/06/22 12:27:22;;;;;;;4.07;2.10;;;;;;;28.91;29.09;97411.03;8413612;28;20241;-80
2022/06/22 12:31:27;;;;;;;3.80;2.20;;;;;;;28.88;30.36;97414.91;8413701;28;20234;-80
2022/06/22 12:35:52;;;;;;;4.20;2.33;;;;;;;28.83;30.49;97428.00;8413715;28;20231;-80
2022/06/22 12:39:57;;;;;;;5.60;2.20;;;;;;;28.78;29.79;97423.25;8413607;28;20228;-79
2022/06/22 12:44:33;;;;;;;4.23;2.07;;;;;;;28.67;30.66;97421.13;8413519;28;20229;-80
2022/06/22 12:48:58;;;;;;;3.13;2.13;;;;;;;28.58;30.97;97415.16;8413717;28;20229;-79
2022/06/22 12:53:04;;;;;;;5.63;2.27;;;;;;;28.60;30.58;97417.63;8419847;28;20539;-80
2022/06/22 12:57:11;;;;;;;5.00;2.20;;;;;;;28.65;30.48;97413.38;8419949;28;20224;-79
2022/06/22 13:01:15;;;;;;;3.50;2.30;;;;;;;28.70;30.88;97407.44;8419744;28;20422;-81
2022/06/22 13:05:21;;;;;;;5.60;2.57;;;;;;;28.79;30.55;97398.28;8419564;28;20241;-82
2022/06/22 13:09:24;;;;;;;3.63;2.30;;;;;;;28.86;30.57;97392.97;8403078;28;20234;-79
2022/06/22 13:13:32;;;;;;;4.47;2.40;;;;;;;28.89;30.42;97392.56;8398003;28;20429;-81
2022/06/22 13:17:41;;;;;;;2.90;2.37;;;;;;;28.80;30.88;97383.91;8418104;28;20432;-80
2022/06/22 13:21:50;;;;;;;3.90;2.60;;;;;;;28.80;30.94;97386.56;8419460;28;20538;-80
2022/06/22 13:26:15;;;;;;;3.80;2.20;;;;;;;28.80;31.03;97375.09;8418847;28;20234;-80
2022/06/22 13:30:22;;;;;;;4.17;2.40;;;;;;;28.84;30.68;97376.34;8418858;28;20323;-80
2022/06/22 13:34:29;;;;;;;5.33;2.50;;;;;;;29.08;29.80;97368.88;8418514;28;20230;-79
2022/06/22 13:39:00;;;;;;;3.57;2.37;;;;;;;29.28;30.42;97363.59;8417997;28;20225;-81
2022/06/22 13:43:31;;;;;;;5.77;2.80;;;;;;;29.18;30.98;97369.31;8418518;28;20421;-80
2022/06/22 13:48:07;;;;;;;4.60;2.80;;;;;;;29.16;30.79;97352.72;8368748;28;20229;-81
2022/06/22 13:52:22;;;;;;;4.20;2.53;;;;;;;29.04;31.56;97358.59;8411977;28;20286;-81
2022/06/22 13:56:34;;;;;;;5.97;2.80;;;;;;;28.89;30.92;97365.09;8417817;28;20237;-80
2022/06/22 14:00:47;;;;;;;5.27;2.90;;;;;;;28.71;30.71;97360.31;8416936;28;20234;-81
2022/06/22 14:04:56;;;;;;;9.13;2.87;;;;;;;28.50;30.97;97370.00;8417991;28;20234;-81
2022/06/22 14:09:08;;;;;;;8.07;3.00;;;;;;;28.56;30.29;97365.75;8417500;28;20283;-80
2022/06/22 14:13:14;;;;;;;4.00;2.57;;;;;;;28.18;31.41;97369.63;8417418;28;20236;-82
2022/06/22 14:17:20;;;;;;;6.50;2.93;;;;;;;28.31;31.00;97366.22;8417649;28;20229;-81
2022/06/22 14:21:31;;;;;;;5.67;2.67;;;;;;;28.40;31.33;97353.56;8416802;28;20421;-81
2022/06/22 14:25:43;;;;;;;6.43;3.00;;;;;;;28.37;30.82;97353.94;8417442;28;20428;-81
2022/06/22 14:30:20;;;;;;;5.33;3.00;;;;;;;28.18;31.63;97355.47;8417170;28;20234;-81
2022/06/22 14:34:33;;;;;;;5.23;2.93;;;;;;;28.30;31.55;97356.59;8281841;28;20233;-82
2022/06/22 14:38:44;;;;;;;9.03;4.30;;;;;;;27.93;38.42;97357.75;8350342;28;20234;-81
2022/06/22 14:42:51;;;;;;;10.73;4.73;;;;;;;27.68;42.46;97361.66;8416790;28;20240;-81
2022/06/22 14:47:08;;;;;;;10.10;5.30;;;;;;;27.21;45.70;97356.88;8416594;28;20515;-82
2022/06/22 14:51:26;;;;;;;9.40;5.60;;;;;;;26.97;45.84;97373.97;8416086;28;20229;-81
2022/06/22 14:55:35;;;;;;;13.20;5.03;;;;;;;26.71;46.65;97364.66;8415836;28;20235;-81
2022/06/22 14:59:42;;;;;;;15.20;4.93;;;;;;;26.85;46.62;97365.66;8408978;28;20228;-81
2022/06/22 15:03:51;;;;;;;10.43;5.13;;;;;;;26.54;47.28;97374.63;8408706;28;20293;-81
2022/06/22 15:07:59;;;;;;;10.73;5.10;;;;;;;26.56;47.32;97377.09;8415204;28;20233;-80
2022/06/22 15:16:39;;;;;;;8.80;5.10;;;;;;;25.98;48.79;97371.56;8384651;28;20395;-80
2022/06/22 15:20:46;;;;;;;9.20;5.30;;;;;;;26.05;48.44;97378.63;8415346;28;20276;-81
2022/06/22 15:25:00;;;;;;;10.03;5.27;;;;;;;25.97;48.78;97370.75;8415143;28;20240;-80
2022/06/22 15:29:07;;;;;;;10.20;4.53;;;;;;;26.04;48.42;97370.84;8415074;28;20228;-82
2022/06/22 15:33:16;;;;;;;8.43;4.93;;;;;;;25.96;48.75;97365.63;8414794;28;20229;-82
2022/06/22 15:37:46;;;;;;;9.23;5.30;;;;;;;25.85;49.57;97366.84;8414931;28;20240;-83
2022/06/22 15:41:58;;;;;;;10.20;4.70;;;;;;;25.94;49.28;97373.75;8414733;28;20495;-83
2022/06/22 15:46:06;;;;;;;8.30;5.03;;;;;;;25.81;49.41;97381.47;8414926;28;20229;-83
2022/06/22 15:50:22;;;;;;;8.20;4.90;;;;;;;25.81;49.76;97378.81;8414649;28;20232;-82
2022/06/22 15:54:36;;;;;;;11.03;4.80;;;;;;;25.91;49.28;97388.22;8414173;28;20233;-81
2022/06/22 15:58:45;;;;;;;8.87;4.87;;;;;;;26.11;48.51;97382.38;8414432;28;20256;-82
2022/06/22 16:02:53;;;;;;;8.97;5.00;;;;;;;25.85;49.44;97372.97;8413365;28;20231;-82
2022/06/22 16:07:03;;;;;;;12.07;5.30;;;;;;;25.77;49.18;97381.00;8414281;28;20297;-82
2022/06/22 16:15:42;;;;;;;9.33;4.53;;;;;;;25.85;48.89;97374.78;8413863;28;20281;-82
2022/06/22 16:19:52;;;;;;;8.83;4.80;;;;;;;25.93;48.55;97383.53;8390868;28;20413;-82
2022/06/22 16:24:00;;;;;;;7.40;4.53;;;;;;;25.80;49.31;97383.28;8380363;28;20225;-83
2022/06/22 16:28:07;;;;;;;7.03;4.83;;;;;;;25.82;49.34;97393.72;8380865;28;20233;-80
2022/06/22 16:32:14;;;;;;;7.67;4.50;;;;;;;25.75;49.40;97398.91;8381325;28;20229;-82
2022/06/22 16:36:36;;;;;;;14.10;5.10;;;;;;;25.79;49.10;97391.44;8401589;28;20303;-82
2022/06/22 16:40:46;;;;;;;10.20;4.90;;;;;;;25.38;50.57;97395.22;8413897;28;20245;-81
2022/06/22 16:45:11;;;;;;;6.23;4.07;;;;;;;25.43;50.05;97395.50;8413167;28;20339;-84
2022/06/22 16:49:19;;;;;;;8.10;4.60;;;;;;;25.44;50.16;97402.44;8409442;28;20529;-83
2022/06/22 16:53:24;;;;;;;11.13;5.37;;;;;;;24.77;51.94;97395.00;8413265;28;20241;-82
2022/06/22 16:57:41;;;;;;;11.30;4.70;;;;;;;25.34;50.09;97407.97;8413590;28;20233;-81
2022/06/22 17:01:45;;;;;;;7.37;4.20;;;;;;;25.40;50.22;97411.75;8413089;28;20229;-81
2022/06/22 17:05:52;;;;;;;10.77;4.47;;;;;;;25.39;50.26;97417.22;8379796;28;20224;-83
2022/06/22 17:10:02;;;;;;;11.17;4.40;;;;;;;25.33;50.52;97410.81;8397081;28;20220;-80
2022/06/22 17:14:17;;;;;;;8.33;4.40;;;;;;;25.52;49.70;97414.81;8400767;28;20225;-84
2022/06/22 17:18:30;;;;;;;9.63;4.70;;;;;;;25.50;50.00;97416.81;8360280;28;20233;-80
2022/06/22 17:22:52;;;;;;;7.77;4.90;;;;;;;25.51;49.68;97414.00;8403396;28;20229;-80
2022/06/22 17:27:01;;;;;;;9.30;4.50;;;;;;;25.57;49.22;97407.19;8413167;28;20231;-83
2022/06/22 17:31:10;;;;;;;8.53;4.53;;;;;;;25.67;48.90;97418.34;8414257;28;20234;-80
2022/06/22 17:35:20;;;;;;;8.53;4.80;;;;;;;25.68;48.91;97419.19;8408393;28;20237;-85
2022/06/22 17:39:39;;;;;;;10.00;4.80;;;;;;;25.42;50.34;97425.66;8417533;28;20230;-84
2022/06/22 17:43:48;;;;;;;11.23;4.60;;;;;;;25.56;48.87;97435.50;8414456;28;20244;-84
2022/06/22 17:47:54;;;;;;;9.00;4.53;;;;;;;25.53;49.71;97443.81;8411109;28;20514;-81
2022/06/22 17:51:59;;;;;;;9.53;4.93;;;;;;;25.46;50.51;97437.56;8419196;28;20435;-83
2022/06/22 17:56:05;;;;;;;10.37;4.50;;;;;;;25.36;50.68;97432.47;8418700;28;20229;-87
2022/06/22 18:00:19;;;;;;;9.83;5.43;;;;;;;25.00;51.93;97429.50;8397228;28;20236;-80
2022/06/22 18:04:29;;;;;;;10.60;5.40;;;;;;;25.24;50.86;97423.25;8415557;28;20228;-78
2022/06/22 18:08:40;;;;;;;7.80;5.00;;;;;;;25.15;51.38;97418.97;8417593;28;20231;-80
2022/06/22 18:12:47;;;;;;;14.23;5.33;;;;;;;25.18;51.11;97424.75;8417855;28;20235;-80
2022/06/22 18:16:52;;;;;;;8.00;4.77;;;;;;;25.16;51.64;97424.09;8417643;28;20234;-80
2022/06/22 18:20:58;;;;;;;11.43;5.00;;;;;;;25.10;51.85;97422.16;8417307;28;20527;-78
2022/06/22 18:25:05;;;;;;;7.50;4.77;;;;;;;25.16;51.82;97429.41;8417548;28;20226;-79
2022/06/22 18:29:17;;;;;;;11.57;5.50;;;;;;;24.93;52.49;97423.22;8417278;28;20233;-78
2022/06/22 18:33:25;;;;;;;9.10;5.10;;;;;;;25.08;51.81;97425.97;8417046;28;20245;-79
2022/06/22 18:37:35;;;;;;;9.60;5.30;;;;;;;24.90;52.45;97431.50;8416428;28;20237;-79
2022/06/22 18:46:07;;;;;;;9.50;4.93;;;;;;;24.93;52.17;97425.88;8416354;28;20233;-78
2022/06/22 18:50:16;;;;;;;12.30;5.53;;;;;;;24.91;52.35;97436.63;8416603;28;20231;-77
2022/06/22 18:54:22;;;;;;;10.17;5.00;;;;;;;24.93;52.41;97439.13;8416303;28;20256;-78
2022/06/22 18:58:37;;;;;;;8.30;4.90;;;;;;;24.90;52.50;97435.00;8415800;28;20258;-78
2022/06/22 19:02:45;;;;;;;7.67;4.97;;;;;;;24.86;52.59;97440.78;8415794;28;20245;-77
2022/06/22 19:06:52;;;;;;;13.83;5.50;;;;;;;24.82;52.32;97439.50;8415676;28;20239;-78
2022/06/22 19:10:59;;;;;;;9.83;5.17;;;;;;;24.82;52.74;97434.19;8415422;28;20243;-78
2022/06/22 19:15:04;;;;;;;20.00;8.00;;;;;;;24.81;54.83;97446.63;8415561;28;20558;-78
2022/06/22 19:19:26;;;;;;;11.80;5.43;;;;;;;24.76;54.86;97456.88;8415570;28;20236;-78
2022/06/22 19:23:49;;;;;;;9.33;5.07;;;;;;;24.65;53.33;97452.75;8415141;28;20228;-78
2022/06/22 19:27:58;;;;;;;8.20;4.70;;;;;;;24.69;54.17;97469.13;8414373;28;20411;-78
2022/06/22 19:32:12;;;;;;;10.13;4.90;;;;;;;24.66;54.73;97466.84;8397364;28;20236;-80
2022/06/22 19:36:31;;;;;;;8.73;4.77;;;;;;;24.61;54.83;97470.00;8401768;28;20257;-80
2022/06/22 19:40:50;;;;;;;9.07;4.70;;;;;;;24.60;54.21;97471.00;8403297;28;20220;-79
2022/06/22 19:45:00;;;;;;;7.10;5.10;;;;;;;24.62;54.33;97473.44;8397351;28;20266;-80
2022/06/22 19:49:11;;;;;;;11.97;4.80;;;;;;;24.47;54.00;97481.25;8394885;28;20622;-80
2022/06/22 19:53:17;;;;;;;9.70;5.40;;;;;;;24.53;55.35;97483.25;8397135;28;20251;-80
2022/06/22 19:57:20;;;;;;;7.83;4.70;;;;;;;24.48;55.48;97486.34;8398668;28;20399;-79
2022/06/22 20:01:25;;;;;;;10.90;5.20;;;;;;;24.44;54.79;97490.31;8395855;28;20223;-79
2022/06/22 20:05:39;;;;;;;13.60;5.50;;;;;;;24.45;54.34;97494.66;8396816;28;20234;-80
2022/06/22 20:09:49;;;;;;;9.93;5.30;;;;;;;24.45;54.76;97499.94;8396590;28;20246;-79
2022/06/22 20:13:57;;;;;;;9.70;5.17;;;;;;;24.42;55.15;97505.56;8396503;28;20433;-79
2022/06/22 20:18:02;;;;;;;9.67;5.20;;;;;;;24.36;55.46;97506.22;8396500;28;20233;-79
2022/06/22 20:22:12;;;;;;;11.17;5.13;;;;;;;24.38;55.69;97514.81;8403772;28;20232;-79
2022/06/22 20:26:26;;;;;;;10.43;5.23;;;;;;;24.37;55.22;97527.22;8413792;28;20231;-79